KAUG/AUG METAR and TAF weather

Enter ICAO airport designator
Station Type Date Time Source
KAUG METAR 2020/10/20 17:07 UTC NOAA

KAUG 201707Z AUTO VRB05KT 10SM BKN015 BKN060 OVC075 14/12 A3023 RMK AO2 T01390117


Station Type Date Time Source
KAUG Decoded METAR 2020/10/20 17:07 UTC NOAA

AUGUSTA STATE AIRPORT, ME, United States (KAUG) 44-19N 069-48W 109M
Oct 20, 2020 - 01:07 PM EDT / 2020.10.20 1707 UTC
Wind: Variable at 6 MPH (5 KT):0
Visibility: 10 mile(s):0
Sky conditions: overcast
Temperature: 57.0 F (13.9 C)
Dew Point: 53.1 F (11.7 C)
Relative Humidity: 86%
Pressure (altimeter): 30.23 in. Hg (1023 hPa)
ob: KAUG 201707Z AUTO VRB05KT 10SM BKN015 BKN060 OVC075 14/12 A3023 RMK AO2 T01390117
cycle: 17

Station Type Date Time Source
KAUG TAF 2020/10/20 18:36 UTC NOAA

TAF KAUG 201733Z 2018/2118 20008KT P6SM BKN015
FM202000 19007KT 5SM BR VCSH BKN015
FM210800 03006KT 5SM BR VCSH OVC007

Example: see airport list